Log in  \/ 
x
x

Ramona Operations

Additional info
  • Operations Officer: Julie Keane
  • Phone Number: 760-703-1967
  • E-Mail: rnmops@plusoneflyers.org
Comments
  • No comments found

Leave your comments

0 Character restriction
Your text should be more than 10 characters
terms and condition.
Special Instructions

To access the field, press #### to call for entry.

Ramona Weather

[source: ADDS]
METAR
KRNM 291453Z 05018KT 10SM CLR 19/M08 A2997 RMK AO2 SLP138 T01941083 53018 $ =
KNKX 291455Z 30004KT 10SM FEW200 22/M08 A2995 RMK AO2 SLP135 T02221078 53023 $ =
TAF
TAF KNKX 2915/3015 VRB05KT 9999 SKC 520207 520909 QNH2995INS FM291830 30012KT 9999 SKC 520009 520909 QNH2994INS TEMPO 2919/3001 32014G24KT FM300330 VRB05KT 9999 SKC 500000 QNH2999INS T30/2921Z T12/3013Z =
SR / SS: 13:00 / 02:28 UTC ( 2017-04-29)

Ramona Operations Map